Time;durP1;ratioP1;P1;durP2;ratioP2;P2;SDS_P1;SDS_P2;PMS_P1;PMS_P2;Temp;Humidity;BMP_temperature;BMP_pressure;BME280_temperature;BME280_humidity;BME280_pressure;Samples;Min_cycle;Max_cycle;Signal;HPM_P1;HPM_P2
2022/10/09 00:01:33;;;;;;;31.03;22.07;;;13.80;99.90;;;;;;5052519;28;20823;-64
2022/10/09 00:04:00;;;;;;;88.13;59.83;;;13.80;99.90;;;;;;5052402;28;20445;-65
2022/10/09 00:06:32;;;;;;;71.67;48.30;;;13.80;99.90;;;;;;5051839;28;21224;-64
2022/10/09 00:09:00;;;;;;;43.20;27.50;;;13.80;99.90;;;;;;5052390;28;20508;-64
2022/10/09 00:11:29;;;;;;;29.10;21.50;;;13.80;99.90;;;;;;5052092;28;20448;-64
2022/10/09 00:13:56;;;;;;;56.40;41.17;;;13.80;99.90;;;;;;5053187;28;20455;-65
2022/10/09 00:16:25;;;;;;;38.83;25.60;;;13.80;99.90;;;;;;5052004;28;20444;-64
2022/10/09 00:18:52;;;;;;;18.70;10.80;;;13.80;99.90;;;;;;5053150;28;20432;-65
2022/10/09 00:21:22;;;;;;;15.90;11.43;;;13.70;99.90;;;;;;5052875;28;20495;-64
2022/10/09 00:23:53;;;;;;;20.13;14.83;;;13.70;99.90;;;;;;5052721;28;20437;-64
2022/10/09 00:26:20;;;;;;;12.73;7.33;;;13.70;99.90;;;;;;5053115;28;20437;-65
2022/10/09 00:28:50;;;;;;;10.80;7.60;;;13.80;99.90;;;;;;5052781;28;20831;-65
2022/10/09 00:31:18;;;;;;;8.77;5.17;;;13.80;99.90;;;;;;5052971;28;20445;-65
2022/10/09 00:33:46;;;;;;;15.20;10.97;;;13.70;99.90;;;;;;5052321;28;20518;-65
2022/10/09 00:36:17;;;;;;;10.17;7.00;;;13.70;99.90;;;;;;5052084;28;20468;-65
2022/10/09 00:38:45;;;;;;;15.10;7.60;;;13.70;99.90;;;;;;5052453;28;20449;-65
2022/10/09 00:41:18;;;;;;;8.00;6.20;;;13.70;99.90;;;;;;5052161;28;20448;-65
2022/10/09 00:43:54;;;;;;;9.10;5.57;;;13.60;99.90;;;;;;5049723;28;20439;-69
2022/10/09 00:46:36;;;;;;;9.27;6.80;;;13.60;99.90;;;;;;5050180;28;20915;-64
2022/10/09 00:49:15;;;;;;;6.70;5.10;;;13.60;99.90;;;;;;5052720;28;20518;-65
2022/10/09 00:51:46;;;;;;;7.60;4.80;;;13.60;99.90;;;;;;5051952;28;20429;-66
2022/10/09 00:54:24;;;;;;;10.03;5.70;;;13.50;99.90;;;;;;5052626;28;20841;-64
2022/10/09 00:56:53;;;;;;;7.17;5.40;;;13.50;99.90;;;;;;5052289;28;20444;-64
2022/10/09 00:59:21;;;;;;;8.80;5.90;;;13.50;99.90;;;;;;5052542;28;20444;-64
2022/10/09 01:01:48;;;;;;;6.83;4.97;;;13.50;99.90;;;;;;5051945;28;20437;-64
2022/10/09 01:04:16;;;;;;;5.53;4.53;;;13.50;99.90;;;;;;5052537;28;20441;-65
2022/10/09 01:06:58;;;;;;;8.70;5.20;;;13.50;99.90;;;;;;5051717;28;20825;-65
2022/10/09 01:09:32;;;;;;;8.80;5.70;;;13.50;99.90;;;;;;5052344;28;20436;-64
2022/10/09 01:12:09;;;;;;;9.03;5.17;;;13.50;99.90;;;;;;5051612;28;20475;-65
2022/10/09 01:14:42;;;;;;;7.80;5.00;;;13.40;99.90;;;;;;5052387;28;20779;-64
2022/10/09 01:17:18;;;;;;;8.53;5.03;;;13.40;99.90;;;;;;5052133;28;20433;-65
2022/10/09 01:20:11;;;;;;;8.03;5.10;;;13.40;99.90;;;;;;5052554;28;20440;-64
2022/10/09 01:22:59;;;;;;;8.17;4.67;;;13.40;99.90;;;;;;5032104;28;20445;-64
2022/10/09 01:25:34;;;;;;;9.50;5.43;;;13.30;99.90;;;;;;5035650;28;20521;-64
2022/10/09 01:28:05;;;;;;;8.70;5.00;;;13.30;99.90;;;;;;5052128;28;20574;-64
2022/10/09 01:30:33;;;;;;;7.80;5.60;;;13.30;99.90;;;;;;5051371;28;20509;-64
2022/10/09 01:33:00;;;;;;;6.30;4.20;;;13.30;99.90;;;;;;5051996;28;20496;-64
2022/10/09 01:35:29;;;;;;;7.07;4.17;;;13.20;99.90;;;;;;5051789;28;20455;-64
2022/10/09 01:37:57;;;;;;;7.03;4.60;;;13.20;99.90;;;;;;5051991;28;20465;-64
2022/10/09 01:40:26;;;;;;;4.90;4.20;;;13.20;99.90;;;;;;5051348;28;20524;-65
2022/10/09 01:42:53;;;;;;;7.50;4.13;;;13.20;99.90;;;;;;5052066;28;20640;-64
2022/10/09 01:45:22;;;;;;;8.00;4.07;;;13.20;99.90;;;;;;5051487;28;20444;-64
2022/10/09 01:47:49;;;;;;;9.47;4.50;;;13.10;99.90;;;;;;5051365;28;20480;-64
2022/10/09 01:50:25;;;;;;;5.93;3.37;;;13.10;99.90;;;;;;5056239;28;20469;-64
2022/10/09 01:52:55;;;;;;;8.83;4.37;;;13.10;99.90;;;;;;5055856;28;20449;-64
2022/10/09 01:55:38;;;;;;;6.07;3.90;;;13.10;99.90;;;;;;5055470;28;20429;-64
2022/10/09 01:58:16;;;;;;;7.93;3.60;;;13.10;99.90;;;;;;5055999;28;20436;-65
2022/10/09 02:00:48;;;;;;;9.23;5.43;;;13.00;99.90;;;;;;5056038;28;20343;-66
2022/10/09 02:03:17;;;;;;;6.18;3.60;;;13.00;99.90;;;;;;5055007;28;20198;-64
2022/10/09 02:05:47;;;;;;;4.53;3.90;;;12.90;99.60;;;;;;5055605;28;20537;-64
2022/10/09 02:08:19;;;;;;;5.65;3.47;;;12.90;99.40;;;;;;5055089;28;20508;-64
2022/10/09 02:10:51;;;;;;;6.78;3.78;;;12.90;99.10;;;;;;5055015;28;20195;-64
2022/10/09 02:13:19;;;;;;;4.50;3.37;;;12.90;98.90;;;;;;5055137;28;20194;-64
2022/10/09 02:15:53;;;;;;;6.85;3.72;;;12.80;98.70;;;;;;5054249;28;20473;-64
2022/10/09 02:18:32;;;;;;;8.13;3.60;;;12.80;98.60;;;;;;5054834;28;20210;-64
2022/10/09 02:21:07;;;;;;;5.45;3.70;;;12.80;98.60;;;;;;5055433;28;20447;-64
2022/10/09 02:23:39;;;;;;;9.48;3.40;;;12.70;98.60;;;;;;5055076;28;20278;-64
2022/10/09 02:26:08;;;;;;;5.90;3.10;;;12.80;98.70;;;;;;5055452;28;20197;-64
2022/10/09 02:28:36;;;;;;;8.02;3.78;;;12.70;98.30;;;;;;5054913;28;20218;-64
2022/10/09 02:31:12;;;;;;;8.98;4.57;;;12.60;98.30;;;;;;5053641;28;20676;-64
2022/10/09 02:33:39;;;;;;;7.07;4.10;;;12.50;97.70;;;;;;5055175;28;20574;-65
2022/10/09 02:36:07;;;;;;;9.13;4.63;;;12.50;97.80;;;;;;5054437;28;20313;-64
2022/10/09 02:38:34;;;;;;;7.18;3.95;;;12.40;97.80;;;;;;5055332;28;20187;-64
2022/10/09 02:41:02;;;;;;;11.43;3.85;;;12.40;97.70;;;;;;5054535;28;20191;-64
2022/10/09 02:43:29;;;;;;;5.43;3.53;;;12.40;97.90;;;;;;5054960;28;20226;-64
2022/10/09 02:45:58;;;;;;;6.85;3.97;;;12.30;98.10;;;;;;5054228;28;20244;-64
2022/10/09 02:48:27;;;;;;;6.95;3.70;;;12.30;98.20;;;;;;5054548;28;20214;-65
2022/10/09 02:50:54;;;;;;;6.10;3.58;;;12.30;98.30;;;;;;5054949;28;20209;-64
2022/10/09 02:53:21;;;;;;;6.00;3.55;;;12.30;97.80;;;;;;5054402;28;20193;-64
2022/10/09 02:55:48;;;;;;;8.43;4.30;;;12.30;97.80;;;;;;5054514;28;20618;-65
2022/10/09 02:58:15;;;;;;;5.15;3.83;;;12.20;97.80;;;;;;5054240;28;20190;-64
2022/10/09 03:00:48;;;;;;;10.85;3.70;;;12.10;97.70;;;;;;5054039;28;20190;-63
2022/10/09 03:03:15;;;;;;;6.70;3.33;;;12.10;97.70;;;;;;5054439;28;20266;-64
2022/10/09 03:05:44;;;;;;;4.32;3.08;;;12.00;97.60;;;;;;5054453;28;20190;-63
2022/10/09 03:08:14;;;;;;;6.90;3.95;;;12.00;97.70;;;;;;5053854;28;20218;-64
2022/10/09 03:10:41;;;;;;;6.95;3.92;;;11.90;97.50;;;;;;5054636;28;20209;-64
2022/10/09 03:13:10;;;;;;;8.68;3.88;;;11.80;97.40;;;;;;5054429;28;20198;-64
2022/10/09 03:15:42;;;;;;;7.93;3.45;;;11.80;97.70;;;;;;5054717;28;20197;-64
2022/10/09 03:18:09;;;;;;;6.90;3.70;;;11.70;97.70;;;;;;5054038;28;20672;-64
2022/10/09 03:20:38;;;;;;;8.43;3.90;;;11.70;97.50;;;;;;5053962;28;20198;-65
2022/10/09 03:23:07;;;;;;;10.48;4.10;;;11.60;97.80;;;;;;5053733;28;20657;-64
2022/10/09 03:25:38;;;;;;;7.97;4.75;;;11.60;97.80;;;;;;5054395;28;20311;-64
2022/10/09 03:28:06;;;;;;;7.15;3.25;;;11.60;98.00;;;;;;5053978;28;20221;-64
2022/10/09 03:30:33;;;;;;;8.20;3.67;;;11.50;98.10;;;;;;5053649;28;20190;-63
2022/10/09 03:33:01;;;;;;;5.95;3.20;;;11.50;98.10;;;;;;5054052;28;20248;-64
2022/10/09 03:35:28;;;;;;;10.05;5.50;;;11.50;98.00;;;;;;5053222;28;20186;-63
2022/10/09 03:37:55;;;;;;;8.98;3.75;;;11.50;98.00;;;;;;5054141;28;20237;-63
2022/10/09 03:40:24;;;;;;;6.53;4.72;;;11.40;98.00;;;;;;5053297;28;20190;-63
2022/10/09 03:42:57;;;;;;;6.63;3.92;;;11.30;98.20;;;;;;5053905;28;20289;-63
2022/10/09 03:45:24;;;;;;;7.13;4.43;;;11.30;98.30;;;;;;5052987;28;20194;-63
2022/10/09 03:47:51;;;;;;;5.80;3.83;;;11.20;98.30;;;;;;5053137;28;20244;-64
2022/10/09 03:50:18;;;;;;;8.18;4.05;;;11.20;98.40;;;;;;5050512;28;20198;-64
2022/10/09 03:52:47;;;;;;;4.93;3.42;;;11.20;98.40;;;;;;5053328;28;20236;-64
2022/10/09 03:55:16;;;;;;;6.15;3.95;;;11.20;98.50;;;;;;5053796;28;20614;-64
2022/10/09 03:57:45;;;;;;;8.98;3.85;;;11.10;98.50;;;;;;5053080;28;20190;-64
2022/10/09 04:00:14;;;;;;;11.70;5.03;;;11.10;98.60;;;;;;5053562;28;20191;-64
2022/10/09 04:02:41;;;;;;;13.70;4.47;;;11.10;98.60;;;;;;5053489;28;20213;-64
2022/10/09 04:05:11;;;;;;;8.75;5.00;;;11.10;98.50;;;;;;5053715;28;20636;-64
2022/10/09 04:07:38;;;;;;;4.90;3.75;;;11.10;98.60;;;;;;5053939;28;20190;-63
2022/10/09 04:10:08;;;;;;;5.22;3.53;;;11.00;98.60;;;;;;5053061;28;20220;-63
2022/10/09 04:12:38;;;;;;;5.85;2.97;;;11.00;98.70;;;;;;5033490;28;20187;-64
2022/10/09 04:15:08;;;;;;;6.82;4.05;;;11.00;98.70;;;;;;5052568;28;20187;-64
2022/10/09 04:17:40;;;;;;;6.32;3.65;;;11.00;98.80;;;;;;5053809;28;20201;-64
2022/10/09 04:20:11;;;;;;;6.07;3.47;;;11.00;99.00;;;;;;5053366;28;20186;-64
2022/10/09 04:22:38;;;;;;;5.55;3.42;;;11.00;99.40;;;;;;5053489;28;20202;-64
2022/10/09 04:25:06;;;;;;;7.95;3.45;;;11.00;99.10;;;;;;5053089;28;20194;-64
2022/10/09 04:27:33;;;;;;;6.80;3.85;;;11.00;99.20;;;;;;5053615;28;20187;-65
2022/10/09 04:30:00;;;;;;;6.80;4.28;;;11.00;99.10;;;;;;5053142;28;20218;-63
2022/10/09 04:32:29;;;;;;;5.85;3.70;;;11.00;98.90;;;;;;5053316;28;20229;-63
2022/10/09 04:34:56;;;;;;;7.60;4.60;;;11.00;99.10;;;;;;5053170;28;20616;-63
2022/10/09 04:37:23;;;;;;;6.88;3.60;;;10.90;99.10;;;;;;5053188;28;20345;-63
2022/10/09 04:39:51;;;;;;;8.25;4.05;;;10.90;99.20;;;;;;5052719;28;20648;-64
2022/10/09 04:42:18;;;;;;;6.10;3.55;;;10.90;99.20;;;;;;5053244;28;20194;-63
2022/10/09 04:44:48;;;;;;;8.45;3.70;;;10.90;99.20;;;;;;5052416;28;20216;-63
2022/10/09 04:47:17;;;;;;;7.30;4.20;;;10.90;99.20;;;;;;5053263;28;20293;-63
2022/10/09 04:49:46;;;;;;;5.25;3.72;;;10.90;99.20;;;;;;5050531;28;20623;-64
2022/10/09 04:52:13;;;;;;;8.38;4.13;;;10.90;99.70;;;;;;5052763;28;20186;-64
2022/10/09 04:54:43;;;;;;;7.28;3.72;;;10.90;99.40;;;;;;5052183;28;20189;-64
2022/10/09 04:57:10;;;;;;;9.40;3.72;;;10.90;99.40;;;;;;5052504;28;20186;-63
2022/10/09 04:59:37;;;;;;;6.40;4.30;;;10.90;99.40;;;;;;5052173;28;20190;-65
2022/10/09 05:02:05;;;;;;;5.38;3.40;;;10.90;99.30;;;;;;5052934;28;20197;-64
2022/10/09 05:04:32;;;;;;;9.55;4.05;;;10.90;99.30;;;;;;5052645;28;20195;-63
2022/10/09 05:07:01;;;;;;;7.20;3.40;;;10.90;99.20;;;;;;5052955;28;20222;-64
2022/10/09 05:09:28;;;;;;;9.10;3.80;;;10.90;99.30;;;;;;5052196;28;20228;-63
2022/10/09 05:11:55;;;;;;;5.93;3.95;;;10.90;99.10;;;;;;5052702;28;20198;-63
2022/10/09 05:14:24;;;;;;;7.82;4.05;;;10.80;98.40;;;;;;5052137;28;20649;-64
2022/10/09 05:16:52;;;;;;;6.57;4.07;;;10.60;98.50;;;;;;5052565;28;20191;-63
2022/10/09 05:19:19;;;;;;;7.22;4.45;;;10.60;98.90;;;;;;5052132;28;20187;-64
2022/10/09 05:21:46;;;;;;;5.78;3.95;;;10.60;98.90;;;;;;5052286;28;20597;-64
2022/10/09 05:24:15;;;;;;;5.18;3.85;;;10.60;98.90;;;;;;5051859;28;20213;-63
2022/10/09 05:26:42;;;;;;;9.10;3.75;;;10.60;98.80;;;;;;5052631;28;20194;-64
2022/10/09 05:29:12;;;;;;;6.28;3.72;;;10.60;98.70;;;;;;5052224;28;20671;-64
2022/10/09 05:31:41;;;;;;;8.80;3.97;;;10.60;99.00;;;;;;5052374;28;20190;-64
2022/10/09 05:34:11;;;;;;;5.50;3.60;;;10.60;99.20;;;;;;5052456;28;20187;-64
2022/10/09 05:36:38;;;;;;;5.32;3.15;;;10.60;99.20;;;;;;5052424;28;20712;-64
2022/10/09 05:39:06;;;;;;;4.72;3.45;;;10.60;99.40;;;;;;5052218;28;20201;-64
2022/10/09 05:41:34;;;;;;;6.32;4.05;;;10.60;99.50;;;;;;5052491;28;20194;-64
2022/10/09 05:44:03;;;;;;;7.82;4.15;;;10.70;99.60;;;;;;5051894;28;20202;-63
2022/10/09 05:46:30;;;;;;;7.63;6.20;;;10.70;99.30;;;;;;5052621;28;20544;-63
2022/10/09 05:48:59;;;;;;;13.75;10.75;;;10.60;98.90;;;;;;5052242;28;20218;-64
2022/10/09 05:51:28;;;;;;;21.70;14.00;;;10.60;98.90;;;;;;5052346;28;20551;-63
2022/10/09 05:53:57;;;;;;;15.90;12.52;;;10.70;99.10;;;;;;5051496;28;20182;-63
2022/10/09 05:56:26;;;;;;;14.75;12.50;;;10.60;99.10;;;;;;5052321;28;20198;-63
2022/10/09 05:58:56;;;;;;;16.67;12.55;;;10.70;99.30;;;;;;5051852;28;20772;-64
2022/10/09 06:01:26;;;;;;;16.33;11.07;;;10.70;99.50;;;;;;5052101;28;20297;-64
2022/10/09 06:03:54;;;;;;;11.68;8.43;;;10.80;99.60;;;;;;5051618;28;20743;-64
2022/10/09 06:06:24;;;;;;;10.55;7.57;;;10.80;99.80;;;;;;5048384;28;20194;-63
2022/10/09 06:08:54;;;;;;;11.35;7.70;;;10.80;99.90;;;;;;5050123;28;20213;-63
2022/10/09 06:11:23;;;;;;;13.02;7.72;;;10.90;99.90;;;;;;5046400;28;20198;-63
2022/10/09 06:13:51;;;;;;;8.73;6.85;;;10.90;99.90;;;;;;5050205;28;20191;-63
2022/10/09 06:16:22;;;;;;;14.32;7.45;;;11.00;99.90;;;;;;5050169;28;20281;-64
2022/10/09 06:18:53;;;;;;;7.10;6.05;;;11.00;99.90;;;;;;5047881;28;20190;-65
2022/10/09 06:21:21;;;;;;;9.82;6.47;;;11.00;99.90;;;;;;5050237;28;20202;-64
2022/10/09 06:23:50;;;;;;;8.25;5.72;;;11.10;99.90;;;;;;5050194;28;20277;-63
2022/10/09 06:26:18;;;;;;;12.30;7.03;;;11.10;99.90;;;;;;5050072;28;20190;-64
2022/10/09 06:28:47;;;;;;;8.13;6.80;;;11.20;99.90;;;;;;5049549;28;20191;-63
2022/10/09 06:31:15;;;;;;;7.30;5.28;;;11.30;99.90;;;;;;5050351;28;20190;-64
2022/10/09 06:33:45;;;;;;;6.78;4.95;;;11.40;99.90;;;;;;5049534;28;20198;-64
2022/10/09 06:36:14;;;;;;;11.73;5.80;;;11.40;99.90;;;;;;5053475;28;20233;-63
2022/10/09 06:38:44;;;;;;;9.05;5.22;;;11.50;99.90;;;;;;5053726;28;20197;-64
2022/10/09 06:41:16;;;;;;;8.68;4.75;;;11.50;99.90;;;;;;5053385;28;20711;-64
2022/10/09 06:43:43;;;;;;;6.05;4.38;;;11.60;99.90;;;;;;5052500;28;20190;-63
2022/10/09 06:46:12;;;;;;;8.50;5.05;;;11.60;99.80;;;;;;5053490;28;20553;-64
2022/10/09 06:48:43;;;;;;;7.30;4.68;;;11.70;99.70;;;;;;5052753;28;20546;-65
2022/10/09 06:51:12;;;;;;;5.93;3.92;;;11.70;99.30;;;;;;5049934;28;20194;-63
2022/10/09 06:53:44;;;;;;;6.15;4.10;;;11.80;99.20;;;;;;5052454;28;20194;-63
2022/10/09 06:56:12;;;;;;;8.38;5.18;;;11.80;99.20;;;;;;5053037;28;20190;-64
2022/10/09 06:58:40;;;;;;;8.77;5.00;;;11.80;99.50;;;;;;5051919;28;20537;-65
2022/10/09 07:01:10;;;;;;;6.32;4.63;;;11.90;99.60;;;;;;5053410;28;20210;-63
2022/10/09 07:03:41;;;;;;;9.43;4.63;;;11.90;99.40;;;;;;5052933;28;20182;-65
2022/10/09 07:06:13;;;;;;;14.32;5.90;;;11.90;99.60;;;;;;5053489;28;20222;-64
2022/10/09 07:08:44;;;;;;;11.18;5.45;;;12.00;99.80;;;;;;5053035;28;20194;-64
2022/10/09 07:11:14;;;;;;;9.85;5.25;;;12.10;99.90;;;;;;5052722;28;20637;-64
2022/10/09 07:13:46;;;;;;;8.90;5.72;;;12.10;99.90;;;;;;5053059;28;20191;-63
2022/10/09 07:16:13;;;;;;;9.07;7.13;;;12.20;99.80;;;;;;5053342;28;20297;-63
2022/10/09 07:18:41;;;;;;;8.20;6.10;;;12.30;99.60;;;;;;5050952;28;20193;-64
2022/10/09 07:21:10;;;;;;;12.02;7.00;;;12.30;99.20;;;;;;5052689;28;20190;-63
2022/10/09 07:23:39;;;;;;;11.68;6.93;;;12.30;99.10;;;;;;5052989;28;20233;-64
2022/10/09 07:26:11;;;;;;;13.15;7.60;;;12.40;99.10;;;;;;5051120;28;20197;-65
2022/10/09 07:28:42;;;;;;;12.65;7.72;;;12.50;99.20;;;;;;5053470;28;20629;-64
2022/10/09 07:31:10;;;;;;;10.85;8.10;;;12.60;99.50;;;;;;5053421;28;20313;-63
2022/10/09 07:33:37;;;;;;;10.27;7.80;;;12.60;99.50;;;;;;5052562;28;20222;-64
2022/10/09 07:36:06;;;;;;;11.43;7.88;;;12.70;99.90;;;;;;5053019;28;20475;-64
2022/10/09 07:38:34;;;;;;;11.03;6.57;;;12.80;99.60;;;;;;5053178;28;20198;-63
2022/10/09 07:41:03;;;;;;;10.63;7.90;;;12.80;99.40;;;;;;5052999;28;20469;-64
2022/10/09 07:43:30;;;;;;;12.10;8.30;;;12.90;99.40;;;;;;5053135;28;20514;-64
2022/10/09 07:46:01;;;;;;;12.63;7.27;;;13.00;99.40;;;;;;5045151;28;20449;-63
2022/10/09 07:48:28;;;;;;;10.00;7.93;;;13.00;99.40;;;;;;5052040;28;20491;-64
2022/10/09 07:50:55;;;;;;;14.93;8.83;;;13.10;99.50;;;;;;5051464;28;20273;-64
2022/10/09 07:53:23;;;;;;;10.87;8.70;;;13.10;98.60;;;;;;5052900;28;20448;-63
2022/10/09 07:55:51;;;;;;;11.80;8.90;;;13.20;98.70;;;;;;5050730;28;20503;-63
2022/10/09 07:58:18;;;;;;;11.40;9.00;;;13.20;98.30;;;;;;5052198;28;20495;-65
2022/10/09 08:00:45;;;;;;;12.40;7.53;;;13.20;98.40;;;;;;5051888;28;20923;-64
2022/10/09 08:03:12;;;;;;;12.03;8.10;;;13.30;98.10;;;;;;5051518;28;20437;-64
2022/10/09 08:05:39;;;;;;;7.90;6.43;;;13.40;98.00;;;;;;5052256;28;20438;-64
2022/10/09 08:08:06;;;;;;;13.87;8.03;;;13.40;97.80;;;;;;5052484;28;20441;-64
2022/10/09 08:10:33;;;;;;;10.03;7.00;;;13.40;97.40;;;;;;5051949;28;20484;-64
2022/10/09 08:13:02;;;;;;;9.17;6.50;;;13.50;97.50;;;;;;5051841;28;20514;-64
2022/10/09 08:15:29;;;;;;;8.90;6.80;;;13.50;97.90;;;;;;5052309;28;20538;-64
2022/10/09 08:17:56;;;;;;;11.40;7.47;;;13.50;97.10;;;;;;5052024;28;20486;-63
2022/10/09 08:20:23;;;;;;;13.57;7.93;;;13.40;97.20;;;;;;5051783;28;20494;-65
2022/10/09 08:22:49;;;;;;;11.20;7.20;;;13.40;96.70;;;;;;5051875;28;20441;-64
2022/10/09 08:25:17;;;;;;;10.15;6.97;;;13.40;96.70;;;;;;5051820;28;20864;-64
2022/10/09 08:27:44;;;;;;;9.87;7.33;;;13.40;97.30;;;;;;5051449;28;20187;-64
2022/10/09 08:30:13;;;;;;;10.20;8.00;;;13.40;97.40;;;;;;5051625;28;20966;-64
2022/10/09 08:32:40;;;;;;;10.43;7.80;;;13.40;97.50;;;;;;5051178;28;20837;-64
2022/10/09 08:35:08;;;;;;;9.30;7.03;;;13.40;97.30;;;;;;5050543;28;20441;-64
2022/10/09 08:37:35;;;;;;;12.47;8.50;;;13.40;97.30;;;;;;5051805;28;20805;-64
2022/10/09 08:40:02;;;;;;;10.93;7.67;;;13.50;97.10;;;;;;5051345;28;20834;-64
2022/10/09 08:42:35;;;;;;;8.50;7.57;;;13.50;97.10;;;;;;5051501;28;20425;-64
2022/10/09 08:45:04;;;;;;;10.07;7.67;;;13.50;97.40;;;;;;5051314;28;20436;-64
2022/10/09 08:47:41;;;;;;;10.87;7.10;;;13.60;97.40;;;;;;5047258;28;20984;-63
2022/10/09 08:50:14;;;;;;;9.40;7.80;;;13.60;97.50;;;;;;5050972;28;20494;-64
2022/10/09 08:52:49;;;;;;;12.70;9.23;;;13.70;97.20;;;;;;5051636;28;20429;-64
2022/10/09 08:55:20;;;;;;;9.03;6.73;;;13.80;97.10;;;;;;5051030;28;20495;-64
2022/10/09 08:57:50;;;;;;;10.00;7.93;;;13.80;96.90;;;;;;5050532;28;20468;-64
2022/10/09 09:00:20;;;;;;;9.87;7.33;;;13.90;97.00;;;;;;5048752;28;20528;-64
2022/10/09 09:03:25;;;;;;;13.70;7.70;;;13.90;96.40;;;;;;5051310;28;20502;-64
2022/10/09 09:05:58;;;;;;;9.10;8.17;;;14.00;96.30;;;;;;5050154;28;20772;-64
2022/10/09 09:08:34;;;;;;;13.40;9.13;;;14.00;96.50;;;;;;5047664;28;20460;-64
2022/10/09 09:11:16;;;;;;;11.60;8.60;;;14.10;96.60;;;;;;5050355;28;20569;-64
2022/10/09 09:13:56;;;;;;;8.43;6.77;;;14.10;97.30;;;;;;5048344;28;20781;-63
2022/10/09 09:16:36;;;;;;;11.30;7.77;;;14.20;96.50;;;;;;5046542;28;20545;-63
2022/10/09 09:19:18;;;;;;;11.20;7.10;;;14.20;96.30;;;;;;5051098;28;20440;-64
2022/10/09 09:21:50;;;;;;;8.60;6.20;;;14.30;96.60;;;;;;5048235;28;20428;-64
2022/10/09 09:24:19;;;;;;;8.47;7.40;;;14.40;96.60;;;;;;5049895;28;20928;-65
2022/10/09 09:26:51;;;;;;;10.13;7.40;;;14.40;96.20;;;;;;5046353;28;20535;-64
2022/10/09 09:29:23;;;;;;;10.00;6.70;;;14.40;96.20;;;;;;5046819;28;20444;-64
2022/10/09 09:31:54;;;;;;;8.93;7.17;;;14.40;95.60;;;;;;5049061;28;20476;-65
2022/10/09 09:34:28;;;;;;;8.13;6.00;;;14.30;95.40;;;;;;5048773;28;20440;-65
2022/10/09 09:36:57;;;;;;;9.70;6.30;;;14.30;95.40;;;;;;5049209;28;20497;-64
2022/10/09 09:39:27;;;;;;;12.40;7.50;;;14.40;95.70;;;;;;5048729;28;20490;-64
2022/10/09 09:42:00;;;;;;;7.57;6.10;;;14.40;95.60;;;;;;5050095;28;20907;-64
2022/10/09 09:44:32;;;;;;;10.43;6.67;;;14.30;95.50;;;;;;5048684;28;20587;-64
2022/10/09 09:46:59;;;;;;;14.03;6.70;;;14.30;95.50;;;;;;5045350;28;20445;-64
2022/10/09 09:49:28;;;;;;;9.50;6.97;;;14.30;95.60;;;;;;5049354;28;20445;-64
2022/10/09 09:51:57;;;;;;;8.70;6.20;;;14.40;95.80;;;;;;5049066;28;20488;-64
2022/10/09 09:54:26;;;;;;;6.70;5.93;;;14.40;95.70;;;;;;5048206;28;20939;-64
2022/10/09 09:56:56;;;;;;;8.40;6.80;;;14.40;95.60;;;;;;5048582;28;20441;-64
2022/10/09 09:59:31;;;;;;;10.83;7.50;;;14.50;95.40;;;;;;5047522;28;20530;-65
2022/10/09 10:02:04;;;;;;;8.87;6.73;;;14.40;95.20;;;;;;5048130;28;20437;-64
2022/10/09 10:04:33;;;;;;;8.30;6.57;;;14.30;95.30;;;;;;5048847;28;20491;-64
2022/10/09 10:07:01;;;;;;;9.60;7.50;;;14.30;95.50;;;;;;5047877;28;20448;-68
2022/10/09 10:09:28;;;;;;;9.00;5.10;;;14.40;95.30;;;;;;5042077;28;20489;-64
2022/10/09 10:11:58;;;;;;;9.10;6.13;;;14.20;95.20;;;;;;5052453;28;20488;-64
2022/10/09 10:14:26;;;;;;;6.87;6.13;;;14.20;95.30;;;;;;5052674;28;20460;-65
2022/10/09 10:16:56;;;;;;;9.70;5.60;;;14.20;95.60;;;;;;5050560;28;20436;-64
2022/10/09 10:19:25;;;;;;;7.23;5.57;;;14.20;95.70;;;;;;5051821;28;20457;-64
2022/10/09 10:21:59;;;;;;;8.50;5.60;;;14.20;95.80;;;;;;5052573;28;20483;-64
2022/10/09 10:24:31;;;;;;;8.87;7.80;;;14.30;96.20;;;;;;5051787;28;20436;-64
2022/10/09 10:27:03;;;;;;;6.13;5.23;;;14.30;95.30;;;;;;5052442;28;20445;-64
2022/10/09 10:29:34;;;;;;;8.07;6.30;;;14.30;94.80;;;;;;5052836;28;20445;-65
2022/10/09 10:32:10;;;;;;;8.93;6.20;;;14.20;94.70;;;;;;5049686;28;20576;-64
2022/10/09 10:34:42;;;;;;;7.40;5.37;;;14.20;95.10;;;;;;5052781;28;20801;-64
2022/10/09 10:37:24;;;;;;;6.47;5.47;;;14.20;95.30;;;;;;5052101;28;20468;-64
2022/10/09 10:39:58;;;;;;;7.93;5.47;;;14.20;95.10;;;;;;5051620;28;20468;-64
2022/10/09 10:42:34;;;;;;;7.90;5.90;;;14.10;95.30;;;;;;5051327;28;20810;-64
2022/10/09 10:45:08;;;;;;;17.80;11.03;;;14.10;95.80;;;;;;5052519;28;20454;-64
2022/10/09 10:47:41;;;;;;;14.70;8.50;;;14.10;95.50;;;;;;5051565;28;20522;-64
2022/10/09 10:50:14;;;;;;;7.50;6.43;;;14.10;95.70;;;;;;5051394;28;20449;-64
2022/10/09 10:52:53;;;;;;;9.87;6.53;;;14.20;95.50;;;;;;5051985;28;20973;-63
2022/10/09 10:55:31;;;;;;;10.70;8.30;;;14.10;95.50;;;;;;5047982;28;20437;-64
2022/10/09 10:58:17;;;;;;;10.17;8.23;;;14.20;96.00;;;;;;5051888;28;20923;-63
2022/10/09 11:00:58;;;;;;;11.10;5.77;;;14.10;95.70;;;;;;5052039;28;20803;-64
2022/10/09 11:03:39;;;;;;;11.73;6.57;;;14.20;95.50;;;;;;5051702;28;20440;-64
2022/10/09 11:06:16;;;;;;;9.53;7.23;;;14.20;95.30;;;;;;5050117;28;20434;-64
2022/10/09 11:09:09;;;;;;;6.93;6.23;;;14.30;95.80;;;;;;5052158;28;20448;-64
2022/10/09 11:11:42;;;;;;;9.50;7.00;;;14.30;95.40;;;;;;5051562;28;20491;-65
2022/10/09 11:14:21;;;;;;;9.17;6.03;;;14.30;95.30;;;;;;5051059;28;20445;-64
2022/10/09 11:16:59;;;;;;;8.23;6.17;;;14.30;95.70;;;;;;5051373;28;20451;-64
2022/10/09 11:19:58;;;;;;;8.93;7.07;;;14.30;95.20;;;;;;5046296;28;20502;-65
2022/10/09 11:22:40;;;;;;;12.03;6.57;;;14.30;95.20;;;;;;5013709;28;20464;-64
2022/10/09 11:25:21;;;;;;;10.40;6.77;;;14.30;95.70;;;;;;5048372;28;20484;-65
2022/10/09 11:27:55;;;;;;;9.27;7.00;;;14.40;95.80;;;;;;5049796;28;20786;-64
2022/10/09 11:30:25;;;;;;;11.23;6.20;;;14.40;95.60;;;;;;5049711;28;20975;-64
2022/10/09 11:33:02;;;;;;;8.90;6.67;;;14.50;95.30;;;;;;5047629;28;20449;-64
2022/10/09 11:35:34;;;;;;;10.03;7.33;;;14.60;95.10;;;;;;5044990;28;20513;-67
2022/10/09 11:38:13;;;;;;;7.83;7.03;;;14.70;95.10;;;;;;5034644;28;20488;-65
2022/10/09 11:40:43;;;;;;;8.60;6.70;;;14.80;94.90;;;;;;5043661;28;20526;-65
2022/10/09 11:43:30;;;;;;;7.73;5.50;;;14.80;94.90;;;;;;5021950;28;20450;-66
2022/10/09 11:46:01;;;;;;;10.33;7.33;;;14.90;94.50;;;;;;5024477;28;20469;-65
2022/10/09 11:48:35;;;;;;;8.70;6.40;;;14.90;94.60;;;;;;5034815;28;20441;-64
2022/10/09 11:51:09;;;;;;;6.93;6.20;;;14.90;94.30;;;;;;5029204;28;20597;-64
2022/10/09 11:53:38;;;;;;;7.80;6.07;;;14.90;94.30;;;;;;5026980;28;20842;-66
2022/10/09 11:56:19;;;;;;;7.20;5.80;;;14.90;94.60;;;;;;5026158;28;20457;-64
2022/10/09 11:58:57;;;;;;;9.20;6.60;;;14.90;94.50;;;;;;5029657;28;20972;-64
2022/10/09 12:01:28;;;;;;;8.60;6.83;;;14.90;94.40;;;;;;5030270;28;20488;-64
2022/10/09 12:04:06;;;;;;;6.43;5.80;;;15.00;94.20;;;;;;5029748;28;20944;-65
2022/10/09 12:07:00;;;;;;;7.93;6.10;;;15.00;94.00;;;;;;5029222;28;21034;-64
2022/10/09 12:09:31;;;;;;;10.00;7.20;;;14.90;94.20;;;;;;5026994;28;20442;-64
2022/10/09 12:12:06;;;;;;;7.27;6.50;;;14.90;94.70;;;;;;5029014;28;20490;-66
2022/10/09 12:14:34;;;;;;;7.30;6.60;;;14.80;94.80;;;;;;5030024;28;20928;-64
2022/10/09 12:17:02;;;;;;;9.80;7.00;;;14.80;94.10;;;;;;5030160;28;20856;-64
2022/10/09 12:19:36;;;;;;;8.13;6.83;;;14.80;94.30;;;;;;5030034;28;20963;-65
2022/10/09 12:22:11;;;;;;;8.73;6.33;;;14.70;94.40;;;;;;5029309;28;20830;-65
2022/10/09 12:24:41;;;;;;;9.77;8.17;;;14.50;94.70;;;;;;5029371;28;20529;-64
2022/10/09 12:27:19;;;;;;;7.73;6.43;;;14.50;94.90;;;;;;5027952;28;20457;-64
2022/10/09 12:29:52;;;;;;;9.23;7.17;;;14.40;94.90;;;;;;5029565;28;20453;-64
2022/10/09 12:32:28;;;;;;;9.20;8.20;;;14.40;95.20;;;;;;5028979;28;20832;-64
2022/10/09 12:34:56;;;;;;;8.07;7.27;;;14.30;95.50;;;;;;5030038;28;20442;-64
2022/10/09 12:37:34;;;;;;;8.90;7.60;;;14.20;95.60;;;;;;5023054;28;20477;-65
2022/10/09 12:40:09;;;;;;;8.53;6.30;;;14.30;96.20;;;;;;5028947;28;21625;-64
2022/10/09 12:42:38;;;;;;;10.70;7.23;;;14.30;95.80;;;;;;5029008;28;20437;-65
2022/10/09 12:45:06;;;;;;;8.40;7.20;;;14.40;95.90;;;;;;5028842;28;20430;-64
2022/10/09 12:47:38;;;;;;;10.53;8.10;;;14.50;96.30;;;;;;5029526;28;20870;-64
2022/10/09 12:50:19;;;;;;;10.50;8.53;;;14.50;96.10;;;;;;5029240;28;20500;-64
2022/10/09 12:52:50;;;;;;;9.73;7.60;;;14.60;95.50;;;;;;5026901;28;20494;-64
2022/10/09 12:55:26;;;;;;;8.00;6.67;;;14.60;95.40;;;;;;5027520;28;20443;-65
2022/10/09 12:57:57;;;;;;;12.53;7.40;;;14.60;95.50;;;;;;5025904;28;20441;-65
2022/10/09 13:00:25;;;;;;;8.63;7.73;;;14.70;95.70;;;;;;5028202;28;20948;-64
2022/10/09 13:02:52;;;;;;;7.70;6.90;;;14.70;95.50;;;;;;5020789;28;20434;-64